sensor_id;sensor_type;location;lat;lon;timestamp;P1;durP1;ratioP1;P2;durP2;ratioP2
68379;SDS011;57711;53.196;19.638;2023-05-31T00:01:54;9.40;;;2.90;;
68379;SDS011;57711;53.196;19.638;2023-05-31T00:04:22;8.80;;;3.00;;
68379;SDS011;57711;53.196;19.638;2023-05-31T00:06:49;16.50;;;6.50;;
68379;SDS011;57711;53.196;19.638;2023-05-31T00:09:16;14.70;;;5.40;;
68379;SDS011;57711;53.196;19.638;2023-05-31T00:11:43;12.90;;;3.80;;
68379;SDS011;57711;53.196;19.638;2023-05-31T00:14:11;14.30;;;4.90;;
68379;SDS011;57711;53.196;19.638;2023-05-31T00:16:38;27.10;;;9.60;;
68379;SDS011;57711;53.196;19.638;2023-05-31T00:19:08;54.20;;;19.80;;
68379;SDS011;57711;53.196;19.638;2023-05-31T00:21:35;96.20;;;33.30;;
68379;SDS011;57711;53.196;19.638;2023-05-31T00:24:03;94.40;;;35.00;;
68379;SDS011;57711;53.196;19.638;2023-05-31T00:26:30;60.50;;;21.40;;
68379;SDS011;57711;53.196;19.638;2023-05-31T00:28:57;20.60;;;8.40;;
68379;SDS011;57711;53.196;19.638;2023-05-31T00:31:25;22.50;;;6.10;;
68379;SDS011;57711;53.196;19.638;2023-05-31T00:33:53;16.80;;;4.90;;
68379;SDS011;57711;53.196;19.638;2023-05-31T00:36:21;21.50;;;7.50;;
68379;SDS011;57711;53.196;19.638;2023-05-31T00:38:48;26.60;;;8.30;;
68379;SDS011;57711;53.196;19.638;2023-05-31T00:41:15;8.60;;;3.60;;
68379;SDS011;57711;53.196;19.638;2023-05-31T00:43:43;7.30;;;3.20;;
68379;SDS011;57711;53.196;19.638;2023-05-31T00:46:14;9.40;;;3.40;;
68379;SDS011;57711;53.196;19.638;2023-05-31T00:49:06;10.90;;;2.90;;
68379;SDS011;57711;53.196;19.638;2023-05-31T00:51:33;6.70;;;2.90;;
68379;SDS011;57711;53.196;19.638;2023-05-31T00:54:02;8.80;;;2.80;;
68379;SDS011;57711;53.196;19.638;2023-05-31T00:56:30;15.80;;;3.30;;
68379;SDS011;57711;53.196;19.638;2023-05-31T00:58:58;7.30;;;3.20;;
68379;SDS011;57711;53.196;19.638;2023-05-31T01:01:26;9.80;;;3.30;;
68379;SDS011;57711;53.196;19.638;2023-05-31T01:04:00;7.80;;;3.30;;
68379;SDS011;57711;53.196;19.638;2023-05-31T01:06:29;6.80;;;3.60;;
68379;SDS011;57711;53.196;19.638;2023-05-31T01:09:00;24.60;;;7.80;;
68379;SDS011;57711;53.196;19.638;2023-05-31T01:11:49;28.10;;;10.50;;
68379;SDS011;57711;53.196;19.638;2023-05-31T01:14:36;10.70;;;4.70;;
68379;SDS011;57711;53.196;19.638;2023-05-31T01:17:30;9.40;;;3.70;;
68379;SDS011;57711;53.196;19.638;2023-05-31T01:20:08;9.60;;;3.20;;
68379;SDS011;57711;53.196;19.638;2023-05-31T01:25:50;6.50;;;2.80;;
68379;SDS011;57711;53.196;19.638;2023-05-31T01:28:40;9.30;;;2.70;;
68379;SDS011;57711;53.196;19.638;2023-05-31T01:31:09;9.30;;;2.60;;
68379;SDS011;57711;53.196;19.638;2023-05-31T01:33:42;14.70;;;4.30;;
68379;SDS011;57711;53.196;19.638;2023-05-31T01:36:10;33.50;;;13.40;;
68379;SDS011;57711;53.196;19.638;2023-05-31T01:38:41;11.70;;;5.20;;
68379;SDS011;57711;53.196;19.638;2023-05-31T01:41:09;9.40;;;3.40;;
68379;SDS011;57711;53.196;19.638;2023-05-31T01:43:43;9.40;;;3.50;;
68379;SDS011;57711;53.196;19.638;2023-05-31T01:46:12;21.50;;;9.90;;
68379;SDS011;57711;53.196;19.638;2023-05-31T01:48:42;112.20;;;55.50;;
68379;SDS011;57711;53.196;19.638;2023-05-31T01:51:10;48.40;;;23.60;;
68379;SDS011;57711;53.196;19.638;2023-05-31T01:53:41;21.60;;;10.60;;
68379;SDS011;57711;53.196;19.638;2023-05-31T01:56:09;15.40;;;5.80;;
68379;SDS011;57711;53.196;19.638;2023-05-31T01:58:38;8.40;;;4.50;;
68379;SDS011;57711;53.196;19.638;2023-05-31T02:01:15;9.00;;;3.20;;
68379;SDS011;57711;53.196;19.638;2023-05-31T02:03:45;8.50;;;3.30;;
68379;SDS011;57711;53.196;19.638;2023-05-31T02:06:16;16.60;;;6.20;;
68379;SDS011;57711;53.196;19.638;2023-05-31T02:08:44;10.80;;;4.60;;
68379;SDS011;57711;53.196;19.638;2023-05-31T02:11:11;9.90;;;3.70;;
68379;SDS011;57711;53.196;19.638;2023-05-31T02:13:39;8.40;;;3.10;;
68379;SDS011;57711;53.196;19.638;2023-05-31T02:16:06;4.30;;;2.40;;
68379;SDS011;57711;53.196;19.638;2023-05-31T02:18:34;6.90;;;2.60;;
68379;SDS011;57711;53.196;19.638;2023-05-31T02:21:02;7.10;;;2.40;;
68379;SDS011;57711;53.196;19.638;2023-05-31T02:23:30;9.70;;;2.50;;
68379;SDS011;57711;53.196;19.638;2023-05-31T02:25:57;8.20;;;3.30;;
68379;SDS011;57711;53.196;19.638;2023-05-31T02:28:24;11.70;;;4.30;;
68379;SDS011;57711;53.196;19.638;2023-05-31T02:30:55;13.20;;;3.20;;
68379;SDS011;57711;53.196;19.638;2023-05-31T02:33:23;9.30;;;3.00;;
68379;SDS011;57711;53.196;19.638;2023-05-31T02:35:51;7.20;;;3.20;;
68379;SDS011;57711;53.196;19.638;2023-05-31T02:38:19;7.60;;;3.40;;
68379;SDS011;57711;53.196;19.638;2023-05-31T02:40:47;6.70;;;2.50;;
68379;SDS011;57711;53.196;19.638;2023-05-31T02:43:14;13.80;;;3.60;;
68379;SDS011;57711;53.196;19.638;2023-05-31T02:45:42;7.40;;;3.80;;
68379;SDS011;57711;53.196;19.638;2023-05-31T02:48:10;10.80;;;4.10;;
68379;SDS011;57711;53.196;19.638;2023-05-31T02:50:37;11.90;;;4.30;;
68379;SDS011;57711;53.196;19.638;2023-05-31T02:53:17;17.20;;;4.60;;
68379;SDS011;57711;53.196;19.638;2023-05-31T02:55:52;13.90;;;5.10;;
68379;SDS011;57711;53.196;19.638;2023-05-31T02:58:22;9.70;;;4.30;;
68379;SDS011;57711;53.196;19.638;2023-05-31T03:01:12;17.70;;;4.70;;
68379;SDS011;57711;53.196;19.638;2023-05-31T03:03:49;13.80;;;4.40;;
68379;SDS011;57711;53.196;19.638;2023-05-31T03:06:22;21.00;;;4.90;;
68379;SDS011;57711;53.196;19.638;2023-05-31T03:08:50;15.70;;;4.10;;
68379;SDS011;57711;53.196;19.638;2023-05-31T03:11:18;14.20;;;5.50;;
68379;SDS011;57711;53.196;19.638;2023-05-31T03:13:46;28.80;;;6.90;;
68379;SDS011;57711;53.196;19.638;2023-05-31T03:16:13;21.70;;;5.50;;
68379;SDS011;57711;53.196;19.638;2023-05-31T03:18:40;16.10;;;5.70;;
68379;SDS011;57711;53.196;19.638;2023-05-31T03:21:08;25.20;;;9.70;;
68379;SDS011;57711;53.196;19.638;2023-05-31T03:23:37;31.40;;;8.90;;
68379;SDS011;57711;53.196;19.638;2023-05-31T03:26:05;15.70;;;6.80;;
68379;SDS011;57711;53.196;19.638;2023-05-31T03:28:32;12.50;;;5.70;;
68379;SDS011;57711;53.196;19.638;2023-05-31T03:30:59;17.70;;;6.00;;
68379;SDS011;57711;53.196;19.638;2023-05-31T03:33:27;16.80;;;5.20;;
68379;SDS011;57711;53.196;19.638;2023-05-31T03:35:55;21.60;;;5.50;;
68379;SDS011;57711;53.196;19.638;2023-05-31T03:38:22;11.60;;;4.50;;
68379;SDS011;57711;53.196;19.638;2023-05-31T03:40:49;8.20;;;4.10;;
68379;SDS011;57711;53.196;19.638;2023-05-31T03:43:16;10.80;;;3.60;;
68379;SDS011;57711;53.196;19.638;2023-05-31T03:45:44;11.40;;;4.40;;
68379;SDS011;57711;53.196;19.638;2023-05-31T03:48:11;10.10;;;3.80;;
68379;SDS011;57711;53.196;19.638;2023-05-31T03:50:39;6.70;;;3.90;;
68379;SDS011;57711;53.196;19.638;2023-05-31T03:53:07;15.70;;;4.10;;
68379;SDS011;57711;53.196;19.638;2023-05-31T03:55:34;8.20;;;3.80;;
68379;SDS011;57711;53.196;19.638;2023-05-31T03:58:02;9.80;;;4.00;;
68379;SDS011;57711;53.196;19.638;2023-05-31T04:00:29;11.60;;;3.90;;
68379;SDS011;57711;53.196;19.638;2023-05-31T04:02:59;6.70;;;3.20;;
68379;SDS011;57711;53.196;19.638;2023-05-31T04:05:32;5.50;;;2.60;;
68379;SDS011;57711;53.196;19.638;2023-05-31T04:08:00;8.00;;;3.00;;
68379;SDS011;57711;53.196;19.638;2023-05-31T04:10:30;9.40;;;2.80;;
68379;SDS011;57711;53.196;19.638;2023-05-31T04:12:58;4.10;;;2.50;;
68379;SDS011;57711;53.196;19.638;2023-05-31T04:15:26;6.70;;;2.70;;
68379;SDS011;57711;53.196;19.638;2023-05-31T04:17:56;6.20;;;2.50;;
68379;SDS011;57711;53.196;19.638;2023-05-31T04:20:24;5.50;;;2.90;;
68379;SDS011;57711;53.196;19.638;2023-05-31T04:22:52;5.10;;;2.80;;
68379;SDS011;57711;53.196;19.638;2023-05-31T04:25:20;5.50;;;3.00;;
68379;SDS011;57711;53.196;19.638;2023-05-31T04:27:47;9.50;;;2.80;;
68379;SDS011;57711;53.196;19.638;2023-05-31T04:30:16;5.50;;;2.40;;
68379;SDS011;57711;53.196;19.638;2023-05-31T04:32:44;8.20;;;2.90;;
68379;SDS011;57711;53.196;19.638;2023-05-31T04:35:11;10.40;;;3.30;;
68379;SDS011;57711;53.196;19.638;2023-05-31T04:37:41;6.60;;;2.70;;
68379;SDS011;57711;53.196;19.638;2023-05-31T04:40:10;6.60;;;3.10;;
68379;SDS011;57711;53.196;19.638;2023-05-31T04:42:38;5.70;;;2.80;;
68379;SDS011;57711;53.196;19.638;2023-05-31T04:45:09;8.00;;;2.70;;
68379;SDS011;57711;53.196;19.638;2023-05-31T04:47:44;6.50;;;2.60;;
68379;SDS011;57711;53.196;19.638;2023-05-31T04:50:17;7.90;;;2.60;;
68379;SDS011;57711;53.196;19.638;2023-05-31T04:52:44;11.90;;;2.60;;
68379;SDS011;57711;53.196;19.638;2023-05-31T04:55:12;10.90;;;2.90;;
68379;SDS011;57711;53.196;19.638;2023-05-31T04:57:40;9.90;;;3.10;;
68379;SDS011;57711;53.196;19.638;2023-05-31T05:00:08;11.40;;;4.40;;
68379;SDS011;57711;53.196;19.638;2023-05-31T05:02:41;8.30;;;3.20;;
68379;SDS011;57711;53.196;19.638;2023-05-31T05:05:10;8.00;;;3.30;;
68379;SDS011;57711;53.196;19.638;2023-05-31T05:07:37;8.40;;;3.70;;
68379;SDS011;57711;53.196;19.638;2023-05-31T05:10:04;11.30;;;3.80;;
68379;SDS011;57711;53.196;19.638;2023-05-31T05:12:32;5.90;;;2.80;;
68379;SDS011;57711;53.196;19.638;2023-05-31T05:14:59;7.10;;;2.60;;
68379;SDS011;57711;53.196;19.638;2023-05-31T05:17:27;12.90;;;2.80;;
68379;SDS011;57711;53.196;19.638;2023-05-31T05:19:55;7.80;;;2.80;;
68379;SDS011;57711;53.196;19.638;2023-05-31T05:22:22;5.90;;;2.60;;
68379;SDS011;57711;53.196;19.638;2023-05-31T05:24:52;8.70;;;3.00;;
68379;SDS011;57711;53.196;19.638;2023-05-31T05:27:19;8.40;;;3.20;;
68379;SDS011;57711;53.196;19.638;2023-05-31T05:29:48;29.20;;;17.00;;
68379;SDS011;57711;53.196;19.638;2023-05-31T05:32:16;20.80;;;8.80;;
68379;SDS011;57711;53.196;19.638;2023-05-31T05:34:43;61.70;;;22.70;;
68379;SDS011;57711;53.196;19.638;2023-05-31T05:37:11;37.20;;;9.90;;
68379;SDS011;57711;53.196;19.638;2023-05-31T05:39:38;14.90;;;6.10;;
68379;SDS011;57711;53.196;19.638;2023-05-31T05:42:05;10.10;;;3.90;;
68379;SDS011;57711;53.196;19.638;2023-05-31T05:44:33;10.70;;;4.10;;
68379;SDS011;57711;53.196;19.638;2023-05-31T05:47:02;8.40;;;4.20;;
68379;SDS011;57711;53.196;19.638;2023-05-31T05:49:29;7.20;;;3.20;;
68379;SDS011;57711;53.196;19.638;2023-05-31T05:51:56;8.00;;;3.30;;
68379;SDS011;57711;53.196;19.638;2023-05-31T05:54:24;8.90;;;3.40;;
68379;SDS011;57711;53.196;19.638;2023-05-31T05:56:51;9.00;;;3.90;;
68379;SDS011;57711;53.196;19.638;2023-05-31T05:59:19;11.90;;;4.70;;
68379;SDS011;57711;53.196;19.638;2023-05-31T06:02:03;9.70;;;3.30;;
68379;SDS011;57711;53.196;19.638;2023-05-31T06:04:31;5.20;;;2.80;;
68379;SDS011;57711;53.196;19.638;2023-05-31T06:06:58;11.60;;;4.10;;
68379;SDS011;57711;53.196;19.638;2023-05-31T06:09:26;4.90;;;2.60;;
68379;SDS011;57711;53.196;19.638;2023-05-31T06:11:54;7.30;;;2.30;;
68379;SDS011;57711;53.196;19.638;2023-05-31T06:14:21;12.30;;;4.50;;
68379;SDS011;57711;53.196;19.638;2023-05-31T06:16:50;7.20;;;2.70;;
68379;SDS011;57711;53.196;19.638;2023-05-31T06:19:17;5.10;;;2.50;;
68379;SDS011;57711;53.196;19.638;2023-05-31T06:21:45;5.50;;;2.00;;
68379;SDS011;57711;53.196;19.638;2023-05-31T06:24:12;13.20;;;2.60;;
68379;SDS011;57711;53.196;19.638;2023-05-31T06:26:39;6.00;;;2.00;;
68379;SDS011;57711;53.196;19.638;2023-05-31T06:29:07;5.90;;;2.00;;
68379;SDS011;57711;53.196;19.638;2023-05-31T06:31:57;9.30;;;3.80;;
68379;SDS011;57711;53.196;19.638;2023-05-31T06:34:28;4.20;;;1.80;;
68379;SDS011;57711;53.196;19.638;2023-05-31T06:36:58;4.60;;;1.60;;
68379;SDS011;57711;53.196;19.638;2023-05-31T06:39:27;1.40;;;1.00;;
68379;SDS011;57711;53.196;19.638;2023-05-31T06:41:54;3.60;;;1.50;;
68379;SDS011;57711;53.196;19.638;2023-05-31T06:44:38;6.10;;;1.70;;
68379;SDS011;57711;53.196;19.638;2023-05-31T06:47:37;4.30;;;1.90;;
68379;SDS011;57711;53.196;19.638;2023-05-31T06:50:30;5.20;;;1.20;;
68379;SDS011;57711;53.196;19.638;2023-05-31T06:53:21;3.50;;;0.90;;
68379;SDS011;57711;53.196;19.638;2023-05-31T06:56:00;4.40;;;1.40;;
68379;SDS011;57711;53.196;19.638;2023-05-31T06:58:30;4.00;;;1.10;;
68379;SDS011;57711;53.196;19.638;2023-05-31T07:00:58;2.20;;;1.10;;
68379;SDS011;57711;53.196;19.638;2023-05-31T07:03:26;3.60;;;1.10;;
68379;SDS011;57711;53.196;19.638;2023-05-31T07:05:53;17.50;;;8.00;;
68379;SDS011;57711;53.196;19.638;2023-05-31T07:08:20;6.30;;;2.10;;
68379;SDS011;57711;53.196;19.638;2023-05-31T07:11:06;3.70;;;1.30;;
68379;SDS011;57711;53.196;19.638;2023-05-31T07:13:34;5.20;;;1.70;;
68379;SDS011;57711;53.196;19.638;2023-05-31T07:16:01;5.00;;;1.10;;
68379;SDS011;57711;53.196;19.638;2023-05-31T07:18:28;5.20;;;1.60;;
68379;SDS011;57711;53.196;19.638;2023-05-31T07:20:57;17.70;;;7.50;;
68379;SDS011;57711;53.196;19.638;2023-05-31T07:23:25;7.60;;;3.00;;
68379;SDS011;57711;53.196;19.638;2023-05-31T07:25:53;6.00;;;1.90;;
68379;SDS011;57711;53.196;19.638;2023-05-31T07:28:20;4.20;;;1.20;;
68379;SDS011;57711;53.196;19.638;2023-05-31T07:30:47;4.90;;;1.10;;
68379;SDS011;57711;53.196;19.638;2023-05-31T07:33:15;7.70;;;1.90;;
68379;SDS011;57711;53.196;19.638;2023-05-31T07:35:55;4.80;;;1.30;;
68379;SDS011;57711;53.196;19.638;2023-05-31T07:38:24;4.80;;;1.30;;
68379;SDS011;57711;53.196;19.638;2023-05-31T07:40:52;6.70;;;1.20;;
68379;SDS011;57711;53.196;19.638;2023-05-31T07:43:20;6.20;;;1.10;;
68379;SDS011;57711;53.196;19.638;2023-05-31T07:45:47;4.90;;;1.10;;
68379;SDS011;57711;53.196;19.638;2023-05-31T07:48:18;6.10;;;1.30;;
68379;SDS011;57711;53.196;19.638;2023-05-31T07:50:46;9.30;;;1.10;;
68379;SDS011;57711;53.196;19.638;2023-05-31T07:53:14;5.70;;;0.90;;
68379;SDS011;57711;53.196;19.638;2023-05-31T07:55:41;6.00;;;1.10;;
68379;SDS011;57711;53.196;19.638;2023-05-31T07:58:08;3.20;;;1.10;;
68379;SDS011;57711;53.196;19.638;2023-05-31T08:00:38;3.50;;;1.50;;
68379;SDS011;57711;53.196;19.638;2023-05-31T08:03:06;8.10;;;2.70;;
68379;SDS011;57711;53.196;19.638;2023-05-31T08:05:33;6.10;;;2.80;;
68379;SDS011;57711;53.196;19.638;2023-05-31T08:08:00;3.60;;;1.30;;
68379;SDS011;57711;53.196;19.638;2023-05-31T08:10:29;4.50;;;1.90;;
68379;SDS011;57711;53.196;19.638;2023-05-31T08:12:56;7.80;;;2.00;;
68379;SDS011;57711;53.196;19.638;2023-05-31T08:15:23;8.00;;;2.50;;
68379;SDS011;57711;53.196;19.638;2023-05-31T08:17:51;4.60;;;1.40;;
68379;SDS011;57711;53.196;19.638;2023-05-31T08:20:18;5.50;;;2.40;;
68379;SDS011;57711;53.196;19.638;2023-05-31T08:22:46;10.00;;;1.20;;
68379;SDS011;57711;53.196;19.638;2023-05-31T08:25:13;5.50;;;1.70;;
68379;SDS011;57711;53.196;19.638;2023-05-31T08:27:41;3.40;;;1.10;;
68379;SDS011;57711;53.196;19.638;2023-05-31T08:30:09;4.60;;;0.80;;
68379;SDS011;57711;53.196;19.638;2023-05-31T08:32:37;4.20;;;2.20;;
68379;SDS011;57711;53.196;19.638;2023-05-31T08:35:04;4.80;;;1.30;;
68379;SDS011;57711;53.196;19.638;2023-05-31T08:37:36;5.30;;;1.40;;
68379;SDS011;57711;53.196;19.638;2023-05-31T08:40:04;6.50;;;0.70;;
68379;SDS011;57711;53.196;19.638;2023-05-31T08:45:14;3.00;;;1.20;;
68379;SDS011;57711;53.196;19.638;2023-05-31T08:47:57;5.60;;;2.90;;
68379;SDS011;57711;53.196;19.638;2023-05-31T08:50:26;2.90;;;1.10;;
68379;SDS011;57711;53.196;19.638;2023-05-31T08:52:55;9.30;;;1.70;;
68379;SDS011;57711;53.196;19.638;2023-05-31T08:55:23;8.30;;;1.90;;
68379;SDS011;57711;53.196;19.638;2023-05-31T08:57:51;5.60;;;0.80;;
68379;SDS011;57711;53.196;19.638;2023-05-31T09:00:19;5.80;;;1.10;;
68379;SDS011;57711;53.196;19.638;2023-05-31T09:02:47;4.30;;;0.90;;
68379;SDS011;57711;53.196;19.638;2023-05-31T09:05:17;3.90;;;1.40;;
68379;SDS011;57711;53.196;19.638;2023-05-31T09:07:45;6.80;;;1.00;;
68379;SDS011;57711;53.196;19.638;2023-05-31T09:10:14;3.20;;;1.30;;
68379;SDS011;57711;53.196;19.638;2023-05-31T09:12:42;13.00;;;2.70;;
68379;SDS011;57711;53.196;19.638;2023-05-31T09:15:12;2.50;;;1.10;;
68379;SDS011;57711;53.196;19.638;2023-05-31T09:17:43;2.50;;;0.90;;
68379;SDS011;57711;53.196;19.638;2023-05-31T09:20:13;3.90;;;1.20;;
68379;SDS011;57711;53.196;19.638;2023-05-31T09:22:41;7.30;;;1.20;;
68379;SDS011;57711;53.196;19.638;2023-05-31T09:25:08;2.70;;;0.80;;
68379;SDS011;57711;53.196;19.638;2023-05-31T09:27:36;7.30;;;1.20;;
68379;SDS011;57711;53.196;19.638;2023-05-31T09:30:11;4.30;;;1.10;;
68379;SDS011;57711;53.196;19.638;2023-05-31T09:32:40;8.30;;;1.00;;
68379;SDS011;57711;53.196;19.638;2023-05-31T09:35:11;6.90;;;1.20;;
68379;SDS011;57711;53.196;19.638;2023-05-31T09:37:48;4.90;;;0.80;;
68379;SDS011;57711;53.196;19.638;2023-05-31T09:40:22;4.80;;;0.90;;
68379;SDS011;57711;53.196;19.638;2023-05-31T09:42:53;4.50;;;1.30;;
68379;SDS011;57711;53.196;19.638;2023-05-31T09:45:21;2.70;;;1.10;;
68379;SDS011;57711;53.196;19.638;2023-05-31T09:47:49;3.10;;;1.00;;
68379;SDS011;57711;53.196;19.638;2023-05-31T09:50:20;8.50;;;3.20;;
68379;SDS011;57711;53.196;19.638;2023-05-31T09:52:49;6.50;;;1.60;;
68379;SDS011;57711;53.196;19.638;2023-05-31T09:55:22;7.60;;;0.90;;
68379;SDS011;57711;53.196;19.638;2023-05-31T09:57:51;2.10;;;0.90;;
68379;SDS011;57711;53.196;19.638;2023-05-31T10:00:19;2.30;;;0.80;;
68379;SDS011;57711;53.196;19.638;2023-05-31T10:02:48;3.00;;;1.00;;
68379;SDS011;57711;53.196;19.638;2023-05-31T10:05:17;3.40;;;1.50;;
68379;SDS011;57711;53.196;19.638;2023-05-31T10:07:47;4.20;;;1.30;;
68379;SDS011;57711;53.196;19.638;2023-05-31T10:10:15;2.60;;;1.00;;
68379;SDS011;57711;53.196;19.638;2023-05-31T10:15:19;2.50;;;1.30;;
68379;SDS011;57711;53.196;19.638;2023-05-31T10:17:53;3.10;;;1.00;;
68379;SDS011;57711;53.196;19.638;2023-05-31T10:20:24;7.10;;;1.00;;
68379;SDS011;57711;53.196;19.638;2023-05-31T10:23:08;24.30;;;1.70;;
68379;SDS011;57711;53.196;19.638;2023-05-31T10:26:22;2.70;;;1.30;;
68379;SDS011;57711;53.196;19.638;2023-05-31T10:28:36;3.30;;;1.00;;
68379;SDS011;57711;53.196;19.638;2023-05-31T10:31:07;3.10;;;0.90;;
68379;SDS011;57711;53.196;19.638;2023-05-31T10:33:38;5.90;;;1.40;;
68379;SDS011;57711;53.196;19.638;2023-05-31T10:36:09;4.10;;;1.20;;
68379;SDS011;57711;53.196;19.638;2023-05-31T10:38:46;2.60;;;0.90;;
68379;SDS011;57711;53.196;19.638;2023-05-31T10:41:20;5.40;;;2.80;;
68379;SDS011;57711;53.196;19.638;2023-05-31T10:43:58;3.90;;;1.40;;
68379;SDS011;57711;53.196;19.638;2023-05-31T10:46:30;8.70;;;2.20;;
68379;SDS011;57711;53.196;19.638;2023-05-31T10:49:01;6.30;;;2.10;;
68379;SDS011;57711;53.196;19.638;2023-05-31T10:54:06;10.50;;;4.80;;
68379;SDS011;57711;53.196;19.638;2023-05-31T10:56:37;5.70;;;1.90;;
68379;SDS011;57711;53.196;19.638;2023-05-31T10:59:10;8.50;;;3.50;;
68379;SDS011;57711;53.196;19.638;2023-05-31T11:01:45;12.30;;;3.00;;
68379;SDS011;57711;53.196;19.638;2023-05-31T11:04:19;6.80;;;3.80;;
68379;SDS011;57711;53.196;19.638;2023-05-31T11:06:52;13.70;;;3.40;;
68379;SDS011;57711;53.196;19.638;2023-05-31T11:09:41;4.60;;;2.50;;
68379;SDS011;57711;53.196;19.638;2023-05-31T11:12:36;7.60;;;4.90;;
68379;SDS011;57711;53.196;19.638;2023-05-31T11:15:04;6.10;;;1.80;;
68379;SDS011;57711;53.196;19.638;2023-05-31T11:17:38;6.00;;;1.10;;
68379;SDS011;57711;53.196;19.638;2023-05-31T11:20:14;3.40;;;1.50;;
68379;SDS011;57711;53.196;19.638;2023-05-31T11:22:42;4.80;;;1.60;;
68379;SDS011;57711;53.196;19.638;2023-05-31T11:25:17;8.20;;;1.10;;
68379;SDS011;57711;53.196;19.638;2023-05-31T11:27:51;5.20;;;0.90;;
68379;SDS011;57711;53.196;19.638;2023-05-31T11:30:35;5.50;;;1.80;;
68379;SDS011;57711;53.196;19.638;2023-05-31T11:33:13;9.30;;;5.80;;
68379;SDS011;57711;53.196;19.638;2023-05-31T11:35:42;4.40;;;1.30;;
68379;SDS011;57711;53.196;19.638;2023-05-31T11:38:09;3.90;;;1.20;;
68379;SDS011;57711;53.196;19.638;2023-05-31T11:40:37;5.60;;;2.70;;
68379;SDS011;57711;53.196;19.638;2023-05-31T11:43:05;2.80;;;1.80;;
68379;SDS011;57711;53.196;19.638;2023-05-31T11:45:37;3.60;;;1.30;;
68379;SDS011;57711;53.196;19.638;2023-05-31T11:50:55;3.50;;;1.10;;
68379;SDS011;57711;53.196;19.638;2023-05-31T11:53:22;2.40;;;1.00;;
68379;SDS011;57711;53.196;19.638;2023-05-31T11:55:50;4.30;;;1.10;;
68379;SDS011;57711;53.196;19.638;2023-05-31T11:58:19;4.60;;;1.10;;
68379;SDS011;57711;53.196;19.638;2023-05-31T12:00:48;2.80;;;1.10;;
68379;SDS011;57711;53.196;19.638;2023-05-31T12:03:15;5.00;;;1.10;;
68379;SDS011;57711;53.196;19.638;2023-05-31T12:05:48;5.10;;;1.10;;
68379;SDS011;57711;53.196;19.638;2023-05-31T12:08:18;8.70;;;1.30;;
68379;SDS011;57711;53.196;19.638;2023-05-31T12:10:45;5.30;;;1.30;;
68379;SDS011;57711;53.196;19.638;2023-05-31T12:13:15;2.30;;;1.20;;
68379;SDS011;57711;53.196;19.638;2023-05-31T12:15:51;3.50;;;1.40;;
68379;SDS011;57711;53.196;19.638;2023-05-31T12:18:20;4.50;;;1.30;;
68379;SDS011;57711;53.196;19.638;2023-05-31T12:20:49;3.30;;;1.20;;
68379;SDS011;57711;53.196;19.638;2023-05-31T12:23:17;1.50;;;0.80;;
68379;SDS011;57711;53.196;19.638;2023-05-31T12:25:47;6.00;;;0.90;;
68379;SDS011;57711;53.196;19.638;2023-05-31T12:28:19;4.20;;;1.40;;
68379;SDS011;57711;53.196;19.638;2023-05-31T12:30:47;4.70;;;1.30;;
68379;SDS011;57711;53.196;19.638;2023-05-31T12:33:15;4.30;;;1.30;;
68379;SDS011;57711;53.196;19.638;2023-05-31T12:35:44;2.80;;;1.20;;
68379;SDS011;57711;53.196;19.638;2023-05-31T12:38:12;2.40;;;1.20;;
68379;SDS011;57711;53.196;19.638;2023-05-31T12:40:43;2.60;;;1.00;;
68379;SDS011;57711;53.196;19.638;2023-05-31T12:43:11;3.20;;;1.40;;
68379;SDS011;57711;53.196;19.638;2023-05-31T12:45:41;8.70;;;2.00;;
68379;SDS011;57711;53.196;19.638;2023-05-31T12:48:09;2.70;;;1.00;;
68379;SDS011;57711;53.196;19.638;2023-05-31T12:50:47;8.50;;;1.60;;
68379;SDS011;57711;53.196;19.638;2023-05-31T12:53:14;2.70;;;1.30;;
68379;SDS011;57711;53.196;19.638;2023-05-31T12:55:43;4.30;;;2.10;;
68379;SDS011;57711;53.196;19.638;2023-05-31T12:58:10;5.50;;;1.30;;
68379;SDS011;57711;53.196;19.638;2023-05-31T13:00:37;2.30;;;1.50;;
68379;SDS011;57711;53.196;19.638;2023-05-31T13:03:05;2.10;;;1.10;;
68379;SDS011;57711;53.196;19.638;2023-05-31T13:05:40;4.50;;;2.40;;
68379;SDS011;57711;53.196;19.638;2023-05-31T13:08:07;11.80;;;3.90;;
68379;SDS011;57711;53.196;19.638;2023-05-31T13:10:34;5.10;;;1.50;;
68379;SDS011;57711;53.196;19.638;2023-05-31T13:13:04;3.10;;;1.20;;
68379;SDS011;57711;53.196;19.638;2023-05-31T13:15:32;6.90;;;1.50;;
68379;SDS011;57711;53.196;19.638;2023-05-31T13:17:59;3.30;;;1.30;;
68379;SDS011;57711;53.196;19.638;2023-05-31T13:20:27;12.60;;;6.40;;
68379;SDS011;57711;53.196;19.638;2023-05-31T13:22:54;14.70;;;6.90;;
68379;SDS011;57711;53.196;19.638;2023-05-31T13:25:25;9.60;;;8.00;;
68379;SDS011;57711;53.196;19.638;2023-05-31T13:27:52;6.10;;;3.80;;
68379;SDS011;57711;53.196;19.638;2023-05-31T13:30:19;4.20;;;1.20;;
68379;SDS011;57711;53.196;19.638;2023-05-31T13:32:46;5.50;;;3.20;;
68379;SDS011;57711;53.196;19.638;2023-05-31T13:35:14;1.80;;;1.20;;
68379;SDS011;57711;53.196;19.638;2023-05-31T13:37:41;3.20;;;1.10;;
68379;SDS011;57711;53.196;19.638;2023-05-31T13:40:09;3.20;;;1.40;;
68379;SDS011;57711;53.196;19.638;2023-05-31T13:42:37;3.50;;;1.20;;
68379;SDS011;57711;53.196;19.638;2023-05-31T13:45:04;5.10;;;1.40;;
68379;SDS011;57711;53.196;19.638;2023-05-31T13:47:32;8.80;;;2.60;;
68379;SDS011;57711;53.196;19.638;2023-05-31T13:50:02;6.50;;;1.50;;
68379;SDS011;57711;53.196;19.638;2023-05-31T13:52:29;3.20;;;1.10;;
68379;SDS011;57711;53.196;19.638;2023-05-31T13:54:57;3.40;;;0.80;;
68379;SDS011;57711;53.196;19.638;2023-05-31T13:57:24;3.10;;;1.20;;
68379;SDS011;57711;53.196;19.638;2023-05-31T13:59:51;4.20;;;1.20;;
68379;SDS011;57711;53.196;19.638;2023-05-31T14:02:18;2.90;;;0.90;;
68379;SDS011;57711;53.196;19.638;2023-05-31T14:04:48;5.00;;;1.10;;
68379;SDS011;57711;53.196;19.638;2023-05-31T14:07:15;4.90;;;1.00;;
68379;SDS011;57711;53.196;19.638;2023-05-31T14:09:42;8.00;;;1.30;;
68379;SDS011;57711;53.196;19.638;2023-05-31T14:12:10;5.20;;;1.20;;
68379;SDS011;57711;53.196;19.638;2023-05-31T14:14:38;1.80;;;1.10;;
68379;SDS011;57711;53.196;19.638;2023-05-31T14:17:06;1.90;;;0.90;;
68379;SDS011;57711;53.196;19.638;2023-05-31T14:19:34;5.00;;;1.30;;
68379;SDS011;57711;53.196;19.638;2023-05-31T14:22:01;4.00;;;1.20;;
68379;SDS011;57711;53.196;19.638;2023-05-31T14:24:29;6.60;;;1.40;;
68379;SDS011;57711;53.196;19.638;2023-05-31T14:26:56;5.80;;;1.40;;
68379;SDS011;57711;53.196;19.638;2023-05-31T14:29:23;3.50;;;1.10;;
68379;SDS011;57711;53.196;19.638;2023-05-31T14:31:51;6.30;;;1.10;;
68379;SDS011;57711;53.196;19.638;2023-05-31T14:34:19;2.30;;;1.00;;
68379;SDS011;57711;53.196;19.638;2023-05-31T14:36:46;1.30;;;0.90;;
68379;SDS011;57711;53.196;19.638;2023-05-31T14:39:14;2.20;;;0.90;;
68379;SDS011;57711;53.196;19.638;2023-05-31T14:41:41;2.50;;;1.00;;
68379;SDS011;57711;53.196;19.638;2023-05-31T14:44:08;7.30;;;1.20;;
68379;SDS011;57711;53.196;19.638;2023-05-31T14:46:36;5.30;;;2.50;;
68379;SDS011;57711;53.196;19.638;2023-05-31T14:49:03;12.70;;;4.60;;
68379;SDS011;57711;53.196;19.638;2023-05-31T14:51:30;3.50;;;1.10;;
68379;SDS011;57711;53.196;19.638;2023-05-31T14:53:58;4.20;;;1.40;;
68379;SDS011;57711;53.196;19.638;2023-05-31T14:56:26;10.50;;;1.20;;
68379;SDS011;57711;53.196;19.638;2023-05-31T14:58:54;3.90;;;1.00;;
68379;SDS011;57711;53.196;19.638;2023-05-31T15:01:21;3.00;;;1.10;;